createdAt,value
2019-01-14T00:00:05.225Z,5.90
2019-01-14T00:02:33.427Z,5.90
2019-01-14T00:05:01.721Z,5.90
2019-01-14T00:07:29.950Z,5.90
2019-01-14T00:09:58.184Z,5.90
2019-01-14T00:12:26.460Z,5.90
2019-01-14T00:14:54.677Z,5.90
2019-01-14T00:17:22.948Z,5.80
2019-01-14T00:19:51.164Z,5.80
2019-01-14T00:22:19.644Z,5.80
2019-01-14T00:24:47.947Z,5.60
2019-01-14T00:27:16.163Z,5.50
2019-01-14T00:29:44.410Z,5.50
2019-01-14T00:32:12.646Z,5.50
2019-01-14T00:34:40.870Z,5.60
2019-01-14T00:37:09.116Z,5.60
2019-01-14T00:39:37.348Z,5.50
2019-01-14T00:42:05.596Z,5.50
2019-01-14T00:44:33.896Z,5.60
2019-01-14T00:47:02.134Z,5.60
2019-01-14T00:49:30.388Z,5.60
2019-01-14T00:51:58.608Z,5.50
2019-01-14T00:54:26.868Z,5.50
2019-01-14T00:56:55.089Z,5.50
2019-01-14T00:59:23.315Z,5.50
2019-01-14T01:01:51.564Z,5.50
2019-01-14T01:04:19.781Z,5.50
2019-01-14T01:06:48.106Z,5.50
2019-01-14T01:09:17.095Z,5.40
2019-01-14T01:11:45.388Z,5.40
2019-01-14T01:14:13.615Z,5.40
2019-01-14T01:16:41.840Z,5.40
2019-01-14T01:19:10.092Z,5.40
2019-01-14T01:21:38.324Z,5.30
2019-01-14T01:24:06.573Z,5.30
2019-01-14T01:26:34.812Z,5.30
2019-01-14T01:29:03.029Z,5.30
2019-01-14T01:31:31.335Z,5.30
2019-01-14T01:33:59.575Z,5.30
2019-01-14T01:36:31.868Z,5.30
2019-01-14T01:38:57.760Z,5.30
2019-01-14T01:41:25.977Z,5.30
2019-01-14T01:43:54.262Z,5.30
2019-01-14T01:46:22.485Z,5.30
2019-01-14T01:48:51.172Z,5.30
2019-01-14T01:51:19.412Z,5.30
2019-01-14T01:53:47.647Z,5.30
2019-01-14T01:56:15.920Z,5.30
2019-01-14T01:58:44.182Z,5.30
2019-01-14T02:01:12.399Z,5.30
2019-01-14T02:03:40.642Z,5.30
2019-01-14T02:06:08.864Z,5.20
2019-01-14T02:08:37.288Z,5.20
2019-01-14T02:11:05.509Z,5.30
2019-01-14T02:13:33.723Z,5.20
2019-01-14T02:16:01.976Z,5.20
2019-01-14T02:18:30.193Z,5.20
2019-01-14T02:20:58.460Z,5.20
2019-01-14T02:23:26.680Z,5.20
2019-01-14T02:25:54.923Z,5.20
2019-01-14T02:28:23.127Z,5.20
2019-01-14T02:30:51.318Z,5.20
2019-01-14T02:33:19.559Z,5.20
2019-01-14T02:35:47.936Z,5.20
2019-01-14T02:38:16.121Z,5.20
2019-01-14T02:40:44.330Z,5.20
2019-01-14T02:43:12.522Z,5.20
2019-01-14T02:45:40.718Z,5.20
2019-01-14T02:48:08.934Z,5.30
2019-01-14T02:50:37.122Z,5.20
2019-01-14T02:53:05.307Z,5.20
2019-01-14T02:55:33.539Z,5.20
2019-01-14T02:58:01.726Z,5.20
2019-01-14T03:00:29.919Z,5.20
2019-01-14T03:02:58.146Z,5.20
2019-01-14T03:05:26.335Z,5.20
2019-01-14T03:07:54.539Z,5.10
2019-01-14T03:10:22.756Z,5.10
2019-01-14T03:12:50.948Z,5.20
2019-01-14T03:15:19.195Z,5.10
2019-01-14T03:17:47.403Z,5.00
2019-01-14T03:20:16.643Z,5.00
2019-01-14T03:22:44.834Z,5.00
2019-01-14T03:25:13.890Z,5.00
2019-01-14T03:27:42.087Z,5.10
2019-01-14T03:30:12.920Z,5.00
2019-01-14T03:32:41.128Z,5.00
2019-01-14T03:35:09.319Z,5.00
2019-01-14T03:37:37.517Z,4.90
2019-01-14T03:40:08.930Z,4.90
2019-01-14T03:42:37.123Z,4.90
2019-01-14T03:45:05.799Z,4.90
2019-01-14T03:47:34.519Z,4.80
2019-01-14T03:50:02.787Z,4.80
2019-01-14T03:52:30.988Z,4.80
2019-01-14T03:54:59.207Z,4.80
2019-01-14T03:57:27.406Z,4.80
2019-01-14T03:59:55.604Z,4.80
2019-01-14T04:02:23.814Z,4.80
2019-01-14T04:04:52.010Z,4.80
2019-01-14T04:07:20.204Z,4.90
2019-01-14T04:09:48.440Z,4.80
2019-01-14T04:12:16.631Z,4.80
2019-01-14T04:14:44.824Z,4.80
2019-01-14T04:17:13.035Z,4.80
2019-01-14T04:19:41.231Z,4.80
2019-01-14T04:22:09.647Z,4.80
2019-01-14T04:24:37.864Z,4.70
2019-01-14T04:27:06.075Z,4.70
2019-01-14T04:29:34.272Z,4.70
2019-01-14T04:32:02.495Z,4.70
2019-01-14T04:34:30.688Z,4.70
2019-01-14T04:36:58.875Z,4.80
2019-01-14T04:39:27.092Z,4.80
2019-01-14T04:41:55.362Z,4.80
2019-01-14T04:44:23.562Z,4.80
2019-01-14T04:46:51.784Z,4.80
2019-01-14T04:49:19.972Z,4.80
2019-01-14T04:51:48.174Z,4.80
2019-01-14T04:54:16.399Z,4.70
2019-01-14T04:56:44.602Z,4.80
2019-01-14T04:59:12.826Z,4.80
2019-01-14T05:01:41.060Z,4.80
2019-01-14T05:04:09.263Z,4.80
2019-01-14T05:06:37.462Z,4.80
2019-01-14T05:09:07.522Z,4.80
2019-01-14T05:11:35.726Z,4.80
2019-01-14T05:14:04.089Z,4.80
2019-01-14T05:16:32.296Z,4.80
2019-01-14T05:19:00.475Z,4.80
2019-01-14T05:21:28.680Z,4.90
2019-01-14T05:23:56.878Z,4.80
2019-01-14T05:26:25.167Z,4.80
2019-01-14T05:28:53.374Z,4.80
2019-01-14T05:31:21.567Z,4.80
2019-01-14T05:33:49.781Z,4.80
2019-01-14T05:36:17.980Z,4.90
2019-01-14T05:38:46.206Z,4.90
2019-01-14T05:41:14.408Z,4.80
2019-01-14T05:43:42.607Z,4.80
2019-01-14T05:46:10.835Z,4.80
2019-01-14T05:48:40.752Z,4.70
2019-01-14T05:51:09.359Z,4.70
2019-01-14T05:53:37.554Z,4.70
2019-01-14T05:56:05.778Z,4.60
2019-01-14T05:58:34.007Z,4.60
2019-01-14T06:01:02.440Z,4.60
2019-01-14T06:03:30.772Z,4.60
2019-01-14T06:05:58.950Z,4.60
2019-01-14T06:08:27.161Z,4.60
2019-01-14T06:10:55.406Z,4.60
2019-01-14T06:13:23.598Z,4.60
2019-01-14T06:15:51.814Z,4.50
2019-01-14T06:18:20.018Z,4.40
2019-01-14T06:20:48.227Z,4.40
2019-01-14T06:23:16.498Z,4.40
2019-01-14T06:25:44.698Z,4.40
2019-01-14T06:28:12.995Z,4.40
2019-01-14T06:30:41.170Z,4.40
2019-01-14T06:33:09.367Z,4.50
2019-01-14T06:35:39.950Z,4.40
2019-01-14T06:38:08.734Z,4.40
2019-01-14T06:40:36.964Z,4.40
2019-01-14T06:43:05.183Z,4.30
2019-01-14T06:45:33.371Z,4.30
2019-01-14T06:48:01.590Z,4.30
2019-01-14T06:50:29.794Z,4.30
2019-01-14T06:52:58.026Z,4.30
2019-01-14T06:55:26.229Z,4.20
2019-01-14T06:57:54.438Z,4.20
2019-01-14T07:00:26.018Z,4.30
2019-01-14T07:02:54.300Z,4.30
2019-01-14T07:05:22.521Z,4.30
2019-01-14T07:07:50.723Z,4.30
2019-01-14T07:10:24.389Z,4.30
2019-01-14T07:12:52.611Z,4.40
2019-01-14T07:15:20.810Z,4.30
2019-01-14T07:17:49.030Z,4.30
2019-01-14T07:20:17.874Z,4.30
2019-01-14T07:22:46.140Z,4.30
2019-01-14T07:25:14.392Z,4.40
2019-01-14T07:27:42.586Z,4.30
2019-01-14T07:30:13.458Z,4.30
2019-01-14T07:32:41.650Z,4.30
2019-01-14T07:35:09.851Z,4.30
2019-01-14T07:37:38.050Z,4.30
2019-01-14T07:40:12.027Z,4.20
2019-01-14T07:42:40.230Z,4.30
2019-01-14T07:45:11.074Z,4.20
2019-01-14T07:47:39.279Z,4.20
2019-01-14T07:50:10.143Z,4.30
2019-01-14T07:52:38.351Z,4.40
2019-01-14T07:55:06.581Z,4.40
2019-01-14T07:57:34.777Z,4.40
2019-01-14T08:00:04.781Z,4.40
2019-01-14T08:02:33.003Z,4.40
2019-01-14T08:05:01.197Z,4.40
2019-01-14T08:07:30.134Z,4.30
2019-01-14T08:09:58.327Z,4.10
2019-01-14T08:12:26.519Z,3.80
2019-01-14T08:14:54.747Z,3.60
2019-01-14T08:17:22.930Z,3.50
2019-01-14T08:19:51.151Z,3.40
2019-01-14T08:22:19.342Z,3.30
2019-01-14T08:24:47.541Z,3.20
2019-01-14T08:27:16.115Z,3.10
2019-01-14T08:29:44.307Z,3.00
2019-01-14T08:32:12.527Z,3.00
2019-01-14T08:34:40.735Z,3.00
2019-01-14T08:37:08.963Z,3.00
2019-01-14T08:39:37.172Z,2.90
2019-01-14T08:42:05.745Z,2.90
2019-01-14T08:44:35.594Z,2.90
2019-01-14T08:47:03.865Z,2.90
2019-01-14T08:49:32.082Z,2.90
2019-01-14T08:52:00.279Z,3.00
2019-01-14T08:54:28.466Z,2.90
2019-01-14T08:56:56.678Z,2.90
2019-01-14T08:59:24.862Z,2.90
2019-01-14T09:01:53.084Z,3.00
2019-01-14T09:04:23.394Z,3.00
2019-01-14T09:06:51.203Z,3.00
2019-01-14T09:09:19.415Z,3.10
2019-01-14T09:11:47.611Z,3.10
2019-01-14T09:14:15.838Z,3.20
2019-01-14T09:16:44.036Z,3.30
2019-01-14T09:19:12.218Z,3.40
2019-01-14T09:21:40.430Z,3.50
2019-01-14T09:24:08.617Z,3.60
2019-01-14T09:26:36.833Z,3.70
2019-01-14T09:29:05.044Z,3.80
2019-01-14T09:31:33.522Z,3.80
2019-01-14T09:34:02.922Z,3.80
2019-01-14T09:36:31.114Z,3.70
2019-01-14T09:38:59.330Z,3.80
2019-01-14T09:41:27.530Z,3.90
2019-01-14T09:43:55.730Z,3.90
2019-01-14T09:46:23.953Z,4.00
2019-01-14T09:48:52.152Z,3.90
2019-01-14T09:51:20.375Z,3.90
2019-01-14T09:53:48.554Z,3.90
2019-01-14T09:56:16.750Z,3.90
2019-01-14T09:58:44.966Z,3.80
2019-01-14T10:01:13.158Z,3.90
2019-01-14T10:03:41.386Z,3.90
2019-01-14T10:06:09.586Z,3.90
2019-01-14T10:08:43.001Z,3.90
2019-01-14T10:11:07.743Z,3.90
2019-01-14T10:13:35.930Z,3.90
2019-01-14T10:16:04.134Z,3.90
2019-01-14T10:18:32.643Z,3.90
2019-01-14T10:21:00.834Z,3.90
2019-01-14T10:23:29.042Z,3.90
2019-01-14T10:25:57.238Z,3.90
2019-01-14T10:28:25.449Z,3.90
2019-01-14T10:30:53.639Z,3.80
2019-01-14T10:33:21.826Z,3.70
2019-01-14T10:35:50.036Z,3.70
2019-01-14T10:38:18.230Z,3.70
2019-01-14T10:40:46.469Z,3.90
2019-01-14T10:43:14.656Z,4.00
2019-01-14T10:45:42.847Z,4.10
2019-01-14T10:48:11.060Z,4.00
2019-01-14T10:50:39.247Z,3.90
2019-01-14T10:53:07.464Z,3.80
2019-01-14T10:55:35.659Z,3.70
2019-01-14T10:58:03.843Z,3.70
2019-01-14T11:00:32.046Z,3.70
2019-01-14T11:03:00.310Z,3.80
2019-01-14T11:05:28.797Z,3.90
2019-01-14T11:07:56.974Z,3.90
2019-01-14T11:10:25.166Z,3.90
2019-01-14T11:12:53.376Z,4.10
2019-01-14T11:15:21.930Z,4.20
2019-01-14T11:17:50.232Z,4.30
2019-01-14T11:20:29.769Z,4.30
2019-01-14T11:22:58.413Z,4.30
2019-01-14T11:25:26.667Z,4.30
2019-01-14T11:27:54.866Z,4.30
2019-01-14T11:30:25.769Z,4.30
2019-01-14T11:32:53.968Z,4.40
2019-01-14T11:35:22.187Z,4.40
2019-01-14T11:37:50.677Z,4.50
2019-01-14T11:40:24.430Z,4.60
2019-01-14T11:42:52.634Z,4.60
2019-01-14T11:45:20.843Z,4.50
2019-01-14T11:47:49.046Z,4.30
2019-01-14T11:50:17.611Z,4.30
2019-01-14T11:52:45.938Z,4.30
2019-01-14T11:55:14.150Z,4.30
2019-01-14T11:57:42.338Z,4.30
2019-01-14T12:00:13.892Z,4.20
2019-01-14T12:02:42.083Z,4.20
2019-01-14T12:05:10.550Z,4.10
2019-01-14T12:07:38.761Z,4.10
2019-01-14T12:10:09.099Z,4.10
2019-01-14T12:12:37.330Z,4.20
2019-01-14T12:15:08.777Z,4.30
2019-01-14T12:17:36.986Z,4.50
2019-01-14T12:20:08.455Z,4.70
2019-01-14T12:22:36.654Z,4.80
2019-01-14T12:25:07.035Z,4.80
2019-01-14T12:27:35.216Z,4.80
2019-01-14T12:30:18.369Z,4.70
2019-01-14T12:32:46.587Z,4.80
2019-01-14T12:35:14.786Z,4.70
2019-01-14T12:37:43.005Z,4.70
2019-01-14T12:40:12.334Z,4.60
2019-01-14T12:42:40.550Z,4.50
2019-01-14T12:45:15.022Z,4.50
2019-01-14T12:47:43.227Z,4.50
2019-01-14T12:50:13.998Z,4.40
2019-01-14T12:52:42.204Z,4.40
2019-01-14T12:55:12.952Z,4.10
2019-01-14T12:57:41.146Z,3.70
2019-01-14T13:00:23.362Z,3.00
2019-01-14T13:02:51.554Z,2.70
2019-01-14T13:05:20.984Z,2.60
2019-01-14T13:07:49.186Z,2.60
2019-01-14T13:10:17.378Z,2.50
2019-01-14T13:12:45.628Z,2.40
2019-01-14T13:15:22.587Z,2.40
2019-01-14T13:17:50.794Z,2.30
2019-01-14T13:20:20.478Z,2.30
2019-01-14T13:22:50.038Z,2.30
2019-01-14T13:25:18.251Z,2.40
2019-01-14T13:27:46.442Z,2.40
2019-01-14T13:30:20.566Z,2.50
2019-01-14T13:32:48.755Z,2.60
2019-01-14T13:35:16.975Z,2.60
2019-01-14T13:37:45.177Z,2.60
2019-01-14T13:40:13.506Z,2.60
2019-01-14T13:42:41.725Z,2.70
2019-01-14T13:45:16.272Z,2.70
2019-01-14T13:47:44.429Z,2.80
2019-01-14T13:50:18.812Z,2.90
2019-01-14T13:52:46.984Z,3.00
2019-01-14T13:55:15.576Z,3.10
2019-01-14T13:57:43.782Z,3.20
2019-01-14T14:00:21.050Z,3.30
2019-01-14T14:02:49.271Z,3.50
2019-01-14T14:05:17.462Z,3.60
2019-01-14T14:07:45.650Z,3.60
2019-01-14T14:10:25.190Z,3.50
2019-01-14T14:12:53.377Z,3.40
2019-01-14T14:15:22.291Z,3.30
2019-01-14T14:17:50.618Z,3.20
2019-01-14T14:20:19.250Z,3.20
2019-01-14T14:22:47.703Z,3.10
2019-01-14T14:25:15.910Z,3.00
2019-01-14T14:27:44.107Z,3.00
2019-01-14T14:30:27.346Z,3.00
2019-01-14T14:32:55.535Z,3.00
2019-01-14T14:35:23.730Z,3.00
2019-01-14T14:37:51.930Z,3.00
2019-01-14T14:40:20.135Z,3.10
2019-01-14T14:42:48.330Z,3.10
2019-01-14T14:45:16.569Z,3.20
2019-01-14T14:47:44.751Z,3.30
2019-01-14T14:50:15.286Z,3.40
2019-01-14T14:52:43.572Z,3.40
2019-01-14T14:55:11.766Z,3.40
2019-01-14T14:57:39.966Z,3.60
2019-01-14T15:00:13.775Z,4.00
2019-01-14T15:02:41.964Z,4.40
2019-01-14T15:05:10.963Z,4.30
2019-01-14T15:07:39.218Z,3.90
2019-01-14T15:10:10.451Z,3.60
2019-01-14T15:12:38.671Z,3.40
2019-01-14T15:15:09.870Z,3.20
2019-01-14T15:17:38.057Z,3.20
2019-01-14T15:20:09.788Z,3.10
2019-01-14T15:22:37.962Z,3.10
2019-01-14T15:25:06.155Z,3.00
2019-01-14T15:27:34.386Z,3.00
2019-01-14T15:30:02.845Z,3.00
2019-01-14T15:32:31.050Z,3.00
2019-01-14T15:34:59.314Z,3.00
2019-01-14T15:37:27.537Z,2.90
2019-01-14T15:40:02.933Z,2.80
2019-01-14T15:42:25.651Z,2.80
2019-01-14T15:44:53.854Z,2.80
2019-01-14T15:47:22.049Z,2.70
2019-01-14T15:49:50.270Z,2.60
2019-01-14T15:52:18.482Z,2.40
2019-01-14T15:54:46.680Z,2.20
2019-01-14T15:57:14.887Z,2.10
2019-01-14T15:59:43.091Z,2.10
2019-01-14T16:02:11.274Z,2.00
2019-01-14T16:04:39.502Z,2.00
2019-01-14T16:07:08.382Z,1.90
2019-01-14T16:09:36.645Z,1.90
2019-01-14T16:12:05.212Z,1.90
2019-01-14T16:14:33.415Z,1.90
2019-01-14T16:17:01.643Z,2.00
2019-01-14T16:19:29.870Z,1.90
2019-01-14T16:21:58.066Z,1.90
2019-01-14T16:24:26.283Z,1.90
2019-01-14T16:26:54.479Z,1.80
2019-01-14T16:29:23.139Z,1.80
2019-01-14T16:31:51.371Z,1.80
2019-01-14T16:34:19.571Z,1.80
2019-01-14T16:36:47.767Z,1.90
2019-01-14T16:39:15.984Z,2.00
2019-01-14T16:41:44.178Z,2.00
2019-01-14T16:44:12.367Z,2.00
2019-01-14T16:46:40.586Z,2.10
2019-01-14T16:49:08.780Z,2.00
2019-01-14T16:51:36.970Z,2.10
2019-01-14T16:54:05.202Z,2.10
2019-01-14T16:56:33.393Z,2.10
2019-01-14T16:59:01.594Z,2.10
2019-01-14T17:01:30.275Z,2.00
2019-01-14T17:03:58.466Z,2.00
2019-01-14T17:06:26.688Z,2.00
2019-01-14T17:08:54.943Z,2.00
2019-01-14T17:11:23.106Z,2.00
2019-01-14T17:13:51.306Z,1.90
2019-01-14T17:16:19.533Z,1.90
2019-01-14T17:18:47.942Z,1.80
2019-01-14T17:21:16.920Z,1.80
2019-01-14T17:23:45.147Z,1.90
2019-01-14T17:26:13.348Z,1.80
2019-01-14T17:28:41.539Z,1.80
2019-01-14T17:31:09.747Z,1.80
2019-01-14T17:33:37.938Z,1.90
2019-01-14T17:36:07.763Z,1.90
2019-01-14T17:38:36.007Z,1.90
2019-01-14T17:41:04.203Z,2.00
2019-01-14T17:43:32.395Z,2.10
2019-01-14T17:46:00.606Z,2.20
2019-01-14T17:48:28.794Z,2.20
2019-01-14T17:50:56.992Z,2.20
2019-01-14T17:53:25.216Z,2.20
2019-01-14T17:55:53.494Z,2.10
2019-01-14T17:58:21.758Z,2.10
2019-01-14T18:00:50.016Z,2.00
2019-01-14T18:03:18.694Z,2.00
2019-01-14T18:05:46.911Z,2.00
2019-01-14T18:08:15.147Z,2.00
2019-01-14T18:10:43.352Z,2.00
2019-01-14T18:13:11.551Z,2.00
2019-01-14T18:15:39.765Z,2.10
2019-01-14T18:18:08.034Z,2.10
2019-01-14T18:20:36.239Z,2.10
2019-01-14T18:23:04.499Z,2.10
2019-01-14T18:25:32.690Z,2.20
2019-01-14T18:28:00.883Z,2.40
2019-01-14T18:30:29.111Z,2.40
2019-01-14T18:32:57.295Z,2.40
2019-01-14T18:35:25.486Z,2.40
2019-01-14T18:37:53.837Z,2.40
2019-01-14T18:40:22.050Z,2.40
2019-01-14T18:42:50.247Z,2.40
2019-01-14T18:45:18.690Z,2.40
2019-01-14T18:47:46.897Z,2.40
2019-01-14T18:50:20.129Z,2.40
2019-01-14T18:52:48.335Z,2.40
2019-01-14T18:55:16.529Z,2.40
2019-01-14T18:57:44.718Z,2.40
2019-01-14T19:00:18.190Z,2.40
2019-01-14T19:02:46.448Z,2.40
2019-01-14T19:05:14.634Z,2.40
2019-01-14T19:07:42.878Z,2.40
2019-01-14T19:10:14.085Z,2.40
2019-01-14T19:12:42.315Z,2.30
2019-01-14T19:15:12.969Z,2.30
2019-01-14T19:17:41.163Z,2.20
2019-01-14T19:20:15.754Z,2.20
2019-01-14T19:22:43.975Z,2.10
2019-01-14T19:25:13.351Z,2.20
2019-01-14T19:27:45.403Z,2.20
2019-01-14T19:30:16.418Z,2.20
2019-01-14T19:32:44.683Z,2.20
2019-01-14T19:35:12.856Z,2.20
2019-01-14T19:37:41.074Z,2.20
2019-01-14T19:40:14.287Z,2.20
2019-01-14T19:42:42.475Z,2.20
2019-01-14T19:45:12.540Z,2.20
2019-01-14T19:47:40.731Z,2.10
2019-01-14T19:50:12.260Z,2.10
2019-01-14T19:52:40.546Z,2.10
2019-01-14T19:55:08.744Z,2.10
2019-01-14T19:57:36.927Z,2.10
2019-01-14T20:00:11.289Z,2.00
2019-01-14T20:02:39.459Z,2.00
2019-01-14T20:05:07.820Z,2.10
2019-01-14T20:07:36.095Z,2.20
2019-01-14T20:10:07.311Z,2.20
2019-01-14T20:12:35.487Z,2.20
2019-01-14T20:15:06.721Z,2.10
2019-01-14T20:17:34.918Z,1.70
2019-01-14T20:20:04.735Z,1.40
2019-01-14T20:22:32.978Z,1.10
2019-01-14T20:25:02.909Z,1.00
2019-01-14T20:27:33.223Z,0.90
2019-01-14T20:30:03.222Z,0.90
2019-01-14T20:32:34.420Z,1.00
2019-01-14T20:35:02.626Z,1.00
2019-01-14T20:37:30.851Z,1.00
2019-01-14T20:40:01.898Z,1.00
2019-01-14T20:42:30.090Z,1.10
2019-01-14T20:44:58.311Z,1.20
2019-01-14T20:47:26.515Z,1.20
2019-01-14T20:49:54.735Z,1.20
2019-01-14T20:52:22.962Z,1.10
2019-01-14T20:54:51.171Z,1.10
2019-01-14T20:57:19.375Z,1.10
2019-01-14T20:59:47.587Z,1.10
2019-01-14T21:02:15.802Z,1.10
2019-01-14T21:04:44.035Z,1.10
2019-01-14T21:07:16.220Z,1.10
2019-01-14T21:09:44.419Z,1.10
2019-01-14T21:12:12.633Z,1.10
2019-01-14T21:14:43.003Z,1.00
2019-01-14T21:17:12.502Z,1.00
2019-01-14T21:19:40.663Z,1.00
2019-01-14T21:22:08.887Z,1.00
2019-01-14T21:24:37.099Z,1.00
2019-01-14T21:27:05.303Z,1.10
2019-01-14T21:29:35.162Z,1.00
2019-01-14T21:32:03.370Z,1.00
2019-01-14T21:34:31.571Z,1.10
2019-01-14T21:36:59.805Z,1.10
2019-01-14T21:39:27.971Z,1.00
2019-01-14T21:41:57.684Z,1.00
2019-01-14T21:44:25.917Z,1.00
2019-01-14T21:47:01.883Z,1.00
2019-01-14T21:49:33.362Z,1.00
2019-01-14T21:52:01.614Z,1.00
2019-01-14T21:54:29.783Z,1.00
2019-01-14T21:56:57.993Z,1.10
2019-01-14T21:59:26.223Z,1.10
2019-01-14T22:01:56.243Z,1.10
2019-01-14T22:04:24.394Z,1.10
2019-01-14T22:06:52.622Z,1.10
2019-01-14T22:09:20.814Z,1.10
2019-01-14T22:11:49.019Z,1.20
2019-01-14T22:14:17.246Z,1.20
2019-01-14T22:16:45.456Z,1.30
2019-01-14T22:19:13.641Z,1.30
2019-01-14T22:21:41.887Z,1.30
2019-01-14T22:24:10.093Z,1.30
2019-01-14T22:26:38.272Z,1.30
2019-01-14T22:29:06.514Z,1.30
2019-01-14T22:31:37.406Z,1.20
2019-01-14T22:34:07.242Z,1.20
2019-01-14T22:36:35.462Z,1.20
2019-01-14T22:39:08.587Z,1.20
2019-01-14T22:41:45.694Z,1.20
2019-01-14T22:44:09.846Z,1.10
2019-01-14T22:46:38.033Z,1.10
2019-01-14T22:49:06.263Z,1.10
2019-01-14T22:51:34.459Z,1.10
2019-01-14T22:54:02.656Z,1.20
2019-01-14T22:56:30.947Z,1.20
2019-01-14T22:58:59.142Z,1.30
2019-01-14T23:01:29.083Z,1.30
2019-01-14T23:03:57.317Z,1.30
2019-01-14T23:06:25.518Z,1.20
2019-01-14T23:08:53.722Z,1.30
2019-01-14T23:11:23.572Z,1.30
2019-01-14T23:13:51.783Z,1.40
2019-01-14T23:16:20.001Z,1.40
2019-01-14T23:18:48.202Z,1.50
2019-01-14T23:21:16.402Z,1.50
2019-01-14T23:23:44.614Z,1.50
2019-01-14T23:26:12.819Z,1.50
2019-01-14T23:28:41.018Z,1.40
2019-01-14T23:31:09.245Z,1.50
2019-01-14T23:33:37.455Z,1.50
2019-01-14T23:36:05.623Z,1.40
2019-01-14T23:38:33.851Z,1.40
2019-01-14T23:41:02.043Z,1.40
2019-01-14T23:43:30.242Z,1.40
2019-01-14T23:45:58.478Z,1.40
2019-01-14T23:48:26.687Z,1.40
2019-01-14T23:50:54.898Z,1.40
2019-01-14T23:53:24.028Z,1.40
2019-01-14T23:55:52.213Z,1.40
2019-01-14T23:58:20.488Z,1.40
